sensor_id;sensor_type;location;lat;lon;timestamp;P1;durP1;ratioP1;P2;durP2;ratioP2
7903;SDS011;3997;48.416;8.512;2022-07-21T00:02:07;9.50;;;8.80;;
7903;SDS011;3997;48.416;8.512;2022-07-21T00:04:34;9.20;;;8.60;;
7903;SDS011;3997;48.416;8.512;2022-07-21T00:07:00;9.90;;;9.20;;
7903;SDS011;3997;48.416;8.512;2022-07-21T00:09:28;9.80;;;9.18;;
7903;SDS011;3997;48.416;8.512;2022-07-21T00:11:54;9.85;;;9.25;;
7903;SDS011;3997;48.416;8.512;2022-07-21T00:14:21;10.35;;;9.75;;
7903;SDS011;3997;48.416;8.512;2022-07-21T00:16:47;10.07;;;9.52;;
7903;SDS011;3997;48.416;8.512;2022-07-21T00:19:14;9.40;;;8.80;;
7903;SDS011;3997;48.416;8.512;2022-07-21T00:21:40;9.70;;;8.90;;
7903;SDS011;3997;48.416;8.512;2022-07-21T00:24:07;9.85;;;9.15;;
7903;SDS011;3997;48.416;8.512;2022-07-21T00:26:35;10.15;;;9.45;;
7903;SDS011;3997;48.416;8.512;2022-07-21T00:29:01;10.25;;;9.45;;
7903;SDS011;3997;48.416;8.512;2022-07-21T00:31:28;10.20;;;9.40;;
7903;SDS011;3997;48.416;8.512;2022-07-21T00:33:54;10.02;;;9.30;;
7903;SDS011;3997;48.416;8.512;2022-07-21T00:36:21;10.15;;;9.45;;
7903;SDS011;3997;48.416;8.512;2022-07-21T00:38:48;10.07;;;9.48;;
7903;SDS011;3997;48.416;8.512;2022-07-21T00:41:15;9.82;;;9.20;;
7903;SDS011;3997;48.416;8.512;2022-07-21T00:43:43;9.50;;;8.98;;
7903;SDS011;3997;48.416;8.512;2022-07-21T00:46:09;10.45;;;9.75;;
7903;SDS011;3997;48.416;8.512;2022-07-21T00:48:36;9.18;;;8.48;;
7903;SDS011;3997;48.416;8.512;2022-07-21T00:51:02;9.88;;;9.25;;
7903;SDS011;3997;48.416;8.512;2022-07-21T00:53:29;9.02;;;8.52;;
7903;SDS011;3997;48.416;8.512;2022-07-21T00:55:55;9.57;;;9.00;;
7903;SDS011;3997;48.416;8.512;2022-07-21T00:58:22;9.70;;;9.10;;
7903;SDS011;3997;48.416;8.512;2022-07-21T01:00:51;9.30;;;8.70;;
7903;SDS011;3997;48.416;8.512;2022-07-21T01:03:18;9.27;;;8.77;;
7903;SDS011;3997;48.416;8.512;2022-07-21T01:05:44;9.40;;;8.80;;
7903;SDS011;3997;48.416;8.512;2022-07-21T01:08:11;9.32;;;8.70;;
7903;SDS011;3997;48.416;8.512;2022-07-21T01:10:38;10.02;;;9.45;;
7903;SDS011;3997;48.416;8.512;2022-07-21T01:13:05;8.98;;;8.45;;
7903;SDS011;3997;48.416;8.512;2022-07-21T01:15:32;9.25;;;8.57;;
7903;SDS011;3997;48.416;8.512;2022-07-21T01:18:00;9.27;;;8.68;;
7903;SDS011;3997;48.416;8.512;2022-07-21T01:20:26;9.32;;;8.77;;
7903;SDS011;3997;48.416;8.512;2022-07-21T01:22:59;9.65;;;9.05;;
7903;SDS011;3997;48.416;8.512;2022-07-21T01:25:25;10.02;;;9.43;;
7903;SDS011;3997;48.416;8.512;2022-07-21T01:27:52;10.18;;;9.48;;
7903;SDS011;3997;48.416;8.512;2022-07-21T01:30:18;10.20;;;9.50;;
7903;SDS011;3997;48.416;8.512;2022-07-21T01:32:45;9.93;;;9.32;;
7903;SDS011;3997;48.416;8.512;2022-07-21T01:35:13;10.23;;;9.52;;
7903;SDS011;3997;48.416;8.512;2022-07-21T01:37:42;10.95;;;10.25;;
7903;SDS011;3997;48.416;8.512;2022-07-21T01:40:11;10.85;;;10.10;;
7903;SDS011;3997;48.416;8.512;2022-07-21T01:42:54;11.10;;;10.40;;
7903;SDS011;3997;48.416;8.512;2022-07-21T01:45:21;10.60;;;9.90;;
7903;SDS011;3997;48.416;8.512;2022-07-21T01:47:47;10.13;;;9.43;;
7903;SDS011;3997;48.416;8.512;2022-07-21T01:50:14;10.70;;;9.80;;
7903;SDS011;3997;48.416;8.512;2022-07-21T01:52:41;10.18;;;9.55;;
7903;SDS011;3997;48.416;8.512;2022-07-21T01:55:07;10.30;;;9.57;;
7903;SDS011;3997;48.416;8.512;2022-07-21T01:57:35;11.05;;;10.25;;
7903;SDS011;3997;48.416;8.512;2022-07-21T02:00:02;10.70;;;10.00;;
7903;SDS011;3997;48.416;8.512;2022-07-21T02:02:29;10.23;;;9.63;;
7903;SDS011;3997;48.416;8.512;2022-07-21T02:04:55;10.52;;;9.77;;
7903;SDS011;3997;48.416;8.512;2022-07-21T02:07:22;9.45;;;8.75;;
7903;SDS011;3997;48.416;8.512;2022-07-21T02:09:48;9.65;;;9.05;;
7903;SDS011;3997;48.416;8.512;2022-07-21T02:12:15;9.35;;;8.75;;
7903;SDS011;3997;48.416;8.512;2022-07-21T02:14:42;9.85;;;9.25;;
7903;SDS011;3997;48.416;8.512;2022-07-21T02:17:09;10.05;;;9.20;;
7903;SDS011;3997;48.416;8.512;2022-07-21T02:19:35;10.40;;;9.70;;
7903;SDS011;3997;48.416;8.512;2022-07-21T02:22:02;9.75;;;9.15;;
7903;SDS011;3997;48.416;8.512;2022-07-21T02:24:28;9.98;;;9.27;;
7903;SDS011;3997;48.416;8.512;2022-07-21T02:26:55;10.10;;;9.40;;
7903;SDS011;3997;48.416;8.512;2022-07-21T02:29:21;9.57;;;8.98;;
7903;SDS011;3997;48.416;8.512;2022-07-21T02:31:49;10.20;;;9.52;;
7903;SDS011;3997;48.416;8.512;2022-07-21T02:34:16;9.20;;;8.70;;
7903;SDS011;3997;48.416;8.512;2022-07-21T02:36:42;8.95;;;8.35;;
7903;SDS011;3997;48.416;8.512;2022-07-21T02:39:09;9.90;;;9.10;;
7903;SDS011;3997;48.416;8.512;2022-07-21T02:41:35;9.65;;;8.95;;
7903;SDS011;3997;48.416;8.512;2022-07-21T02:44:02;9.57;;;8.95;;
7903;SDS011;3997;48.416;8.512;2022-07-21T02:46:28;9.10;;;8.45;;
7903;SDS011;3997;48.416;8.512;2022-07-21T02:48:56;9.88;;;9.18;;
7903;SDS011;3997;48.416;8.512;2022-07-21T02:51:23;10.18;;;9.38;;
7903;SDS011;3997;48.416;8.512;2022-07-21T02:53:49;10.27;;;9.57;;
7903;SDS011;3997;48.416;8.512;2022-07-21T02:56:16;9.65;;;8.95;;
7903;SDS011;3997;48.416;8.512;2022-07-21T02:58:43;10.70;;;10.00;;
7903;SDS011;3997;48.416;8.512;2022-07-21T03:01:09;9.88;;;9.27;;
7903;SDS011;3997;48.416;8.512;2022-07-21T03:03:36;10.00;;;9.20;;
7903;SDS011;3997;48.416;8.512;2022-07-21T03:06:04;10.80;;;9.95;;
7903;SDS011;3997;48.416;8.512;2022-07-21T03:08:30;10.43;;;9.20;;
7903;SDS011;3997;48.416;8.512;2022-07-21T03:10:57;10.43;;;9.43;;
7903;SDS011;3997;48.416;8.512;2022-07-21T03:13:24;10.95;;;10.05;;
7903;SDS011;3997;48.416;8.512;2022-07-21T03:15:50;10.85;;;10.00;;
7903;SDS011;3997;48.416;8.512;2022-07-21T03:18:17;10.77;;;9.77;;
7903;SDS011;3997;48.416;8.512;2022-07-21T03:20:44;10.48;;;9.55;;
7903;SDS011;3997;48.416;8.512;2022-07-21T03:23:12;11.07;;;10.05;;
7903;SDS011;3997;48.416;8.512;2022-07-21T03:25:38;10.57;;;9.77;;
7903;SDS011;3997;48.416;8.512;2022-07-21T03:28:05;10.77;;;9.70;;
7903;SDS011;3997;48.416;8.512;2022-07-21T03:30:32;10.23;;;9.23;;
7903;SDS011;3997;48.416;8.512;2022-07-21T03:32:58;10.80;;;9.90;;
7903;SDS011;3997;48.416;8.512;2022-07-21T03:35:25;10.75;;;9.85;;
7903;SDS011;3997;48.416;8.512;2022-07-21T03:37:52;9.75;;;9.05;;
7903;SDS011;3997;48.416;8.512;2022-07-21T03:40:21;9.77;;;8.90;;
7903;SDS011;3997;48.416;8.512;2022-07-21T03:42:49;10.20;;;9.40;;
7903;SDS011;3997;48.416;8.512;2022-07-21T03:45:16;10.68;;;9.77;;
7903;SDS011;3997;48.416;8.512;2022-07-21T03:47:42;10.63;;;9.73;;
7903;SDS011;3997;48.416;8.512;2022-07-21T03:50:09;10.05;;;9.25;;
7903;SDS011;3997;48.416;8.512;2022-07-21T03:52:38;9.60;;;8.85;;
7903;SDS011;3997;48.416;8.512;2022-07-21T03:55:05;10.05;;;9.27;;
7903;SDS011;3997;48.416;8.512;2022-07-21T03:57:36;9.93;;;9.20;;
7903;SDS011;3997;48.416;8.512;2022-07-21T04:00:04;10.10;;;9.20;;
7903;SDS011;3997;48.416;8.512;2022-07-21T04:02:32;9.48;;;8.68;;
7903;SDS011;3997;48.416;8.512;2022-07-21T04:04:58;8.90;;;8.20;;
7903;SDS011;3997;48.416;8.512;2022-07-21T04:07:25;9.48;;;8.77;;
7903;SDS011;3997;48.416;8.512;2022-07-21T04:09:51;10.27;;;9.32;;
7903;SDS011;3997;48.416;8.512;2022-07-21T04:12:18;11.30;;;10.15;;
7903;SDS011;3997;48.416;8.512;2022-07-21T04:14:46;10.73;;;9.93;;
7903;SDS011;3997;48.416;8.512;2022-07-21T04:17:12;10.15;;;9.25;;
7903;SDS011;3997;48.416;8.512;2022-07-21T04:19:39;10.20;;;9.40;;
7903;SDS011;3997;48.416;8.512;2022-07-21T04:22:05;10.52;;;9.73;;
7903;SDS011;3997;48.416;8.512;2022-07-21T04:24:32;10.75;;;9.73;;
7903;SDS011;3997;48.416;8.512;2022-07-21T04:26:58;10.93;;;10.13;;
7903;SDS011;3997;48.416;8.512;2022-07-21T04:29:24;10.20;;;9.20;;
7903;SDS011;3997;48.416;8.512;2022-07-21T04:31:53;10.10;;;9.30;;
7903;SDS011;3997;48.416;8.512;2022-07-21T04:34:19;9.90;;;9.10;;
7903;SDS011;3997;48.416;8.512;2022-07-21T04:36:46;10.23;;;9.52;;
7903;SDS011;3997;48.416;8.512;2022-07-21T04:39:12;10.80;;;9.27;;
7903;SDS011;3997;48.416;8.512;2022-07-21T04:41:39;10.93;;;9.98;;
7903;SDS011;3997;48.416;8.512;2022-07-21T04:44:05;9.82;;;8.88;;
7903;SDS011;3997;48.416;8.512;2022-07-21T04:46:32;9.98;;;9.27;;
7903;SDS011;3997;48.416;8.512;2022-07-21T04:48:59;9.88;;;8.98;;
7903;SDS011;3997;48.416;8.512;2022-07-21T04:51:26;10.10;;;9.20;;
7903;SDS011;3997;48.416;8.512;2022-07-21T04:53:53;10.20;;;9.23;;
7903;SDS011;3997;48.416;8.512;2022-07-21T04:56:19;10.10;;;9.30;;
7903;SDS011;3997;48.416;8.512;2022-07-21T04:58:46;9.93;;;9.00;;
7903;SDS011;3997;48.416;8.512;2022-07-21T05:01:12;10.85;;;9.77;;
7903;SDS011;3997;48.416;8.512;2022-07-21T05:03:39;9.52;;;8.73;;
7903;SDS011;3997;48.416;8.512;2022-07-21T05:06:06;10.50;;;9.70;;
7903;SDS011;3997;48.416;8.512;2022-07-21T05:08:33;12.75;;;9.85;;
7903;SDS011;3997;48.416;8.512;2022-07-21T05:11:00;10.52;;;9.65;;
7903;SDS011;3997;48.416;8.512;2022-07-21T05:13:27;11.05;;;10.25;;
7903;SDS011;3997;48.416;8.512;2022-07-21T05:15:53;10.85;;;9.93;;
7903;SDS011;3997;48.416;8.512;2022-07-21T05:18:20;10.30;;;9.48;;
7903;SDS011;3997;48.416;8.512;2022-07-21T05:20:46;9.93;;;9.23;;
7903;SDS011;3997;48.416;8.512;2022-07-21T05:23:14;11.23;;;10.23;;
7903;SDS011;3997;48.416;8.512;2022-07-21T05:25:41;10.02;;;9.23;;
7903;SDS011;3997;48.416;8.512;2022-07-21T05:28:07;9.73;;;9.02;;
7903;SDS011;3997;48.416;8.512;2022-07-21T05:30:34;10.20;;;9.50;;
7903;SDS011;3997;48.416;8.512;2022-07-21T05:33:01;10.70;;;9.90;;
7903;SDS011;3997;48.416;8.512;2022-07-21T05:35:27;10.70;;;9.90;;
7903;SDS011;3997;48.416;8.512;2022-07-21T05:37:54;10.32;;;9.63;;
7903;SDS011;3997;48.416;8.512;2022-07-21T05:40:21;10.68;;;9.88;;
7903;SDS011;3997;48.416;8.512;2022-07-21T05:42:48;10.75;;;9.95;;
7903;SDS011;3997;48.416;8.512;2022-07-21T05:45:15;10.73;;;10.02;;
7903;SDS011;3997;48.416;8.512;2022-07-21T05:47:41;10.98;;;10.13;;
7903;SDS011;3997;48.416;8.512;2022-07-21T05:50:08;10.68;;;9.63;;
7903;SDS011;3997;48.416;8.512;2022-07-21T05:52:35;10.82;;;10.02;;
7903;SDS011;3997;48.416;8.512;2022-07-21T05:55:01;10.70;;;9.73;;
7903;SDS011;3997;48.416;8.512;2022-07-21T05:57:29;10.55;;;9.80;;
7903;SDS011;3997;48.416;8.512;2022-07-21T05:59:56;11.25;;;10.35;;
7903;SDS011;3997;48.416;8.512;2022-07-21T06:02:23;10.52;;;9.73;;
7903;SDS011;3997;48.416;8.512;2022-07-21T06:04:50;10.13;;;9.32;;
7903;SDS011;3997;48.416;8.512;2022-07-21T06:07:17;10.68;;;9.85;;
7903;SDS011;3997;48.416;8.512;2022-07-21T06:09:44;11.00;;;10.00;;
7903;SDS011;3997;48.416;8.512;2022-07-21T06:12:10;11.15;;;10.35;;
7903;SDS011;3997;48.416;8.512;2022-07-21T06:14:38;10.52;;;9.65;;
7903;SDS011;3997;48.416;8.512;2022-07-21T06:17:04;11.15;;;10.07;;
7903;SDS011;3997;48.416;8.512;2022-07-21T06:19:31;11.02;;;10.13;;
7903;SDS011;3997;48.416;8.512;2022-07-21T06:21:57;10.88;;;9.98;;
7903;SDS011;3997;48.416;8.512;2022-07-21T06:24:24;10.45;;;9.55;;
7903;SDS011;3997;48.416;8.512;2022-07-21T06:26:51;10.52;;;9.63;;
7903;SDS011;3997;48.416;8.512;2022-07-21T06:29:20;11.02;;;9.98;;
7903;SDS011;3997;48.416;8.512;2022-07-21T06:31:48;10.55;;;9.75;;
7903;SDS011;3997;48.416;8.512;2022-07-21T06:34:14;12.25;;;11.27;;
7903;SDS011;3997;48.416;8.512;2022-07-21T06:36:41;10.18;;;9.38;;
7903;SDS011;3997;48.416;8.512;2022-07-21T06:39:07;10.43;;;9.70;;
7903;SDS011;3997;48.416;8.512;2022-07-21T06:41:37;10.15;;;9.30;;
7903;SDS011;3997;48.416;8.512;2022-07-21T06:44:04;10.85;;;10.05;;
7903;SDS011;3997;48.416;8.512;2022-07-21T06:46:31;9.85;;;9.05;;
7903;SDS011;3997;48.416;8.512;2022-07-21T06:48:59;10.52;;;9.73;;
7903;SDS011;3997;48.416;8.512;2022-07-21T06:51:26;10.63;;;9.75;;
7903;SDS011;3997;48.416;8.512;2022-07-21T06:53:52;10.55;;;9.60;;
7903;SDS011;3997;48.416;8.512;2022-07-21T06:56:19;10.82;;;10.02;;
7903;SDS011;3997;48.416;8.512;2022-07-21T06:58:45;10.38;;;9.57;;
7903;SDS011;3997;48.416;8.512;2022-07-21T07:01:12;10.65;;;9.85;;
7903;SDS011;3997;48.416;8.512;2022-07-21T07:03:42;10.73;;;9.88;;
7903;SDS011;3997;48.416;8.512;2022-07-21T07:06:11;11.20;;;10.35;;
7903;SDS011;3997;48.416;8.512;2022-07-21T07:08:37;10.50;;;9.75;;
7903;SDS011;3997;48.416;8.512;2022-07-21T07:11:04;10.70;;;9.88;;
7903;SDS011;3997;48.416;8.512;2022-07-21T07:13:31;11.00;;;10.23;;
7903;SDS011;3997;48.416;8.512;2022-07-21T07:15:57;11.00;;;10.15;;
7903;SDS011;3997;48.416;8.512;2022-07-21T07:18:24;11.52;;;10.63;;
7903;SDS011;3997;48.416;8.512;2022-07-21T07:20:50;10.07;;;9.38;;
7903;SDS011;3997;48.416;8.512;2022-07-21T07:23:18;10.68;;;9.75;;
7903;SDS011;3997;48.416;8.512;2022-07-21T07:25:45;10.30;;;9.40;;
7903;SDS011;3997;48.416;8.512;2022-07-21T07:28:11;11.52;;;10.48;;
7903;SDS011;3997;48.416;8.512;2022-07-21T07:30:38;9.98;;;9.20;;
7903;SDS011;3997;48.416;8.512;2022-07-21T07:33:05;10.32;;;9.55;;
7903;SDS011;3997;48.416;8.512;2022-07-21T07:35:31;10.93;;;10.00;;
7903;SDS011;3997;48.416;8.512;2022-07-21T07:37:58;10.23;;;9.43;;
7903;SDS011;3997;48.416;8.512;2022-07-21T07:40:25;10.50;;;9.73;;
7903;SDS011;3997;48.416;8.512;2022-07-21T07:42:52;9.93;;;9.15;;
7903;SDS011;3997;48.416;8.512;2022-07-21T07:45:18;10.15;;;9.45;;
7903;SDS011;3997;48.416;8.512;2022-07-21T07:47:45;9.50;;;8.80;;
7903;SDS011;3997;48.416;8.512;2022-07-21T07:50:12;9.73;;;9.02;;
7903;SDS011;3997;48.416;8.512;2022-07-21T07:52:39;9.90;;;9.10;;
7903;SDS011;3997;48.416;8.512;2022-07-21T07:55:06;10.23;;;9.43;;
7903;SDS011;3997;48.416;8.512;2022-07-21T07:57:36;10.13;;;9.43;;
7903;SDS011;3997;48.416;8.512;2022-07-21T08:00:04;10.02;;;9.27;;
7903;SDS011;3997;48.416;8.512;2022-07-21T08:02:31;9.50;;;8.77;;
7903;SDS011;3997;48.416;8.512;2022-07-21T08:04:57;10.05;;;9.23;;
7903;SDS011;3997;48.416;8.512;2022-07-21T08:07:24;9.60;;;8.90;;
7903;SDS011;3997;48.416;8.512;2022-07-21T08:09:50;9.45;;;8.65;;
7903;SDS011;3997;48.416;8.512;2022-07-21T08:12:17;10.68;;;9.82;;
7903;SDS011;3997;48.416;8.512;2022-07-21T08:14:45;9.38;;;8.77;;
7903;SDS011;3997;48.416;8.512;2022-07-21T08:17:11;9.65;;;8.95;;
7903;SDS011;3997;48.416;8.512;2022-07-21T08:19:38;10.25;;;9.32;;
7903;SDS011;3997;48.416;8.512;2022-07-21T08:22:04;10.00;;;9.30;;
7903;SDS011;3997;48.416;8.512;2022-07-21T08:24:31;8.93;;;8.30;;
7903;SDS011;3997;48.416;8.512;2022-07-21T08:26:57;9.80;;;9.10;;
7903;SDS011;3997;48.416;8.512;2022-07-21T08:29:24;9.40;;;8.80;;
7903;SDS011;3997;48.416;8.512;2022-07-21T08:31:52;8.88;;;8.15;;
7903;SDS011;3997;48.416;8.512;2022-07-21T08:34:18;8.93;;;8.23;;
7903;SDS011;3997;48.416;8.512;2022-07-21T08:36:45;8.27;;;7.70;;
7903;SDS011;3997;48.416;8.512;2022-07-21T08:39:11;8.20;;;7.60;;
7903;SDS011;3997;48.416;8.512;2022-07-21T08:41:38;8.50;;;7.80;;
7903;SDS011;3997;48.416;8.512;2022-07-21T08:44:05;8.38;;;7.72;;
7903;SDS011;3997;48.416;8.512;2022-07-21T08:46:36;9.10;;;8.50;;
7903;SDS011;3997;48.416;8.512;2022-07-21T08:49:04;9.05;;;8.45;;
7903;SDS011;3997;48.416;8.512;2022-07-21T08:51:31;8.63;;;8.10;;
7903;SDS011;3997;48.416;8.512;2022-07-21T08:53:58;8.82;;;8.10;;
7903;SDS011;3997;48.416;8.512;2022-07-21T08:56:24;8.70;;;8.02;;
7903;SDS011;3997;48.416;8.512;2022-07-21T08:58:51;7.53;;;7.10;;
7903;SDS011;3997;48.416;8.512;2022-07-21T09:01:17;7.80;;;7.30;;
7903;SDS011;3997;48.416;8.512;2022-07-21T09:03:45;7.95;;;7.35;;
7903;SDS011;3997;48.416;8.512;2022-07-21T09:06:14;6.85;;;6.45;;
7903;SDS011;3997;48.416;8.512;2022-07-21T09:08:42;7.63;;;7.13;;
7903;SDS011;3997;48.416;8.512;2022-07-21T09:11:10;8.20;;;7.70;;
7903;SDS011;3997;48.416;8.512;2022-07-21T09:13:37;8.35;;;7.72;;
7903;SDS011;3997;48.416;8.512;2022-07-21T09:16:04;7.82;;;7.32;;
7903;SDS011;3997;48.416;8.512;2022-07-21T09:18:30;7.43;;;7.03;;
7903;SDS011;3997;48.416;8.512;2022-07-21T09:20:57;7.00;;;6.70;;
7903;SDS011;3997;48.416;8.512;2022-07-21T09:23:26;7.70;;;7.30;;
7903;SDS011;3997;48.416;8.512;2022-07-21T09:25:54;7.50;;;6.97;;
7903;SDS011;3997;48.416;8.512;2022-07-21T09:28:21;7.60;;;7.10;;
7903;SDS011;3997;48.416;8.512;2022-07-21T09:30:52;7.50;;;7.00;;
7903;SDS011;3997;48.416;8.512;2022-07-21T09:33:20;7.60;;;7.20;;
7903;SDS011;3997;48.416;8.512;2022-07-21T09:35:53;7.97;;;7.43;;
7903;SDS011;3997;48.416;8.512;2022-07-21T09:38:20;7.93;;;7.50;;
7903;SDS011;3997;48.416;8.512;2022-07-21T09:40:48;8.52;;;7.93;;
7903;SDS011;3997;48.416;8.512;2022-07-21T09:43:27;7.72;;;7.22;;
7903;SDS011;3997;48.416;8.512;2022-07-21T09:45:54;7.30;;;6.95;;
7903;SDS011;3997;48.416;8.512;2022-07-21T09:48:31;7.50;;;7.10;;
7903;SDS011;3997;48.416;8.512;2022-07-21T09:50:58;7.80;;;7.22;;
7903;SDS011;3997;48.416;8.512;2022-07-21T09:53:47;7.85;;;7.45;;
7903;SDS011;3997;48.416;8.512;2022-07-21T09:56:16;7.88;;;7.47;;
7903;SDS011;3997;48.416;8.512;2022-07-21T09:58:42;7.35;;;6.95;;
7903;SDS011;3997;48.416;8.512;2022-07-21T10:01:09;7.35;;;6.88;;
7903;SDS011;3997;48.416;8.512;2022-07-21T10:03:36;7.80;;;7.30;;
7903;SDS011;3997;48.416;8.512;2022-07-21T10:06:03;7.82;;;7.32;;
7903;SDS011;3997;48.416;8.512;2022-07-21T10:08:30;7.43;;;7.00;;
7903;SDS011;3997;48.416;8.512;2022-07-21T10:10:58;7.85;;;7.40;;
7903;SDS011;3997;48.416;8.512;2022-07-21T10:13:26;8.10;;;7.57;;
7903;SDS011;3997;48.416;8.512;2022-07-21T10:15:53;7.70;;;7.20;;
7903;SDS011;3997;48.416;8.512;2022-07-21T10:18:30;7.07;;;6.43;;
7903;SDS011;3997;48.416;8.512;2022-07-21T10:20:59;7.40;;;6.90;;
7903;SDS011;3997;48.416;8.512;2022-07-21T10:23:28;7.50;;;7.10;;
7903;SDS011;3997;48.416;8.512;2022-07-21T10:25:59;7.60;;;7.07;;
7903;SDS011;3997;48.416;8.512;2022-07-21T10:28:29;6.72;;;6.22;;
7903;SDS011;3997;48.416;8.512;2022-07-21T10:30:56;6.43;;;6.10;;
7903;SDS011;3997;48.416;8.512;2022-07-21T10:36:11;7.30;;;6.80;;
7903;SDS011;3997;48.416;8.512;2022-07-21T10:39:11;7.82;;;7.22;;
7903;SDS011;3997;48.416;8.512;2022-07-21T10:41:42;7.43;;;6.93;;
7903;SDS011;3997;48.416;8.512;2022-07-21T10:47:00;7.65;;;7.18;;
7903;SDS011;3997;48.416;8.512;2022-07-21T10:49:41;7.82;;;7.32;;
7903;SDS011;3997;48.416;8.512;2022-07-21T10:57:30;6.68;;;6.28;;
7903;SDS011;3997;48.416;8.512;2022-07-21T11:00:19;7.30;;;6.90;;
7903;SDS011;3997;48.416;8.512;2022-07-21T11:02:48;6.82;;;6.32;;
7903;SDS011;3997;48.416;8.512;2022-07-21T11:05:14;7.13;;;6.72;;
7903;SDS011;3997;48.416;8.512;2022-07-21T11:10:26;7.20;;;6.70;;
7903;SDS011;3997;48.416;8.512;2022-07-21T11:12:56;7.53;;;7.13;;
7903;SDS011;3997;48.416;8.512;2022-07-21T11:18:05;6.82;;;6.32;;
7903;SDS011;3997;48.416;8.512;2022-07-21T11:20:32;6.90;;;6.60;;
7903;SDS011;3997;48.416;8.512;2022-07-21T11:22:58;7.13;;;6.72;;
7903;SDS011;3997;48.416;8.512;2022-07-21T11:25:28;7.80;;;7.20;;
7903;SDS011;3997;48.416;8.512;2022-07-21T11:27:55;6.82;;;6.43;;
7903;SDS011;3997;48.416;8.512;2022-07-21T11:30:21;6.65;;;6.25;;
7903;SDS011;3997;48.416;8.512;2022-07-21T11:32:48;6.10;;;5.80;;
7903;SDS011;3997;48.416;8.512;2022-07-21T11:35:16;6.47;;;6.18;;
7903;SDS011;3997;48.416;8.512;2022-07-21T11:37:43;6.90;;;6.50;;
7903;SDS011;3997;48.416;8.512;2022-07-21T11:40:11;6.40;;;5.90;;
7903;SDS011;3997;48.416;8.512;2022-07-21T11:42:39;6.65;;;6.25;;
7903;SDS011;3997;48.416;8.512;2022-07-21T11:45:06;6.57;;;6.18;;
7903;SDS011;3997;48.416;8.512;2022-07-21T11:47:33;6.57;;;6.20;;
7903;SDS011;3997;48.416;8.512;2022-07-21T11:50:01;6.55;;;6.15;;
7903;SDS011;3997;48.416;8.512;2022-07-21T11:52:30;6.75;;;6.35;;
7903;SDS011;3997;48.416;8.512;2022-07-21T11:54:57;6.57;;;6.28;;
7903;SDS011;3997;48.416;8.512;2022-07-21T11:57:24;6.88;;;6.47;;
7903;SDS011;3997;48.416;8.512;2022-07-21T11:59:51;6.65;;;6.25;;
7903;SDS011;3997;48.416;8.512;2022-07-21T12:02:19;6.60;;;6.30;;
7903;SDS011;3997;48.416;8.512;2022-07-21T12:04:46;6.65;;;6.25;;
7903;SDS011;3997;48.416;8.512;2022-07-21T12:07:15;6.43;;;5.97;;
7903;SDS011;3997;48.416;8.512;2022-07-21T12:09:43;6.10;;;5.80;;
7903;SDS011;3997;48.416;8.512;2022-07-21T12:12:10;7.28;;;6.78;;
7903;SDS011;3997;48.416;8.512;2022-07-21T12:14:44;6.75;;;6.35;;
7903;SDS011;3997;48.416;8.512;2022-07-21T12:17:11;6.95;;;6.55;;
7903;SDS011;3997;48.416;8.512;2022-07-21T12:19:39;6.90;;;6.50;;
7903;SDS011;3997;48.416;8.512;2022-07-21T12:22:05;9.23;;;7.05;;
7903;SDS011;3997;48.416;8.512;2022-07-21T12:27:17;7.40;;;7.00;;
7903;SDS011;3997;48.416;8.512;2022-07-21T12:29:44;6.88;;;6.30;;
7903;SDS011;3997;48.416;8.512;2022-07-21T12:32:11;6.38;;;6.07;;
7903;SDS011;3997;48.416;8.512;2022-07-21T12:34:47;6.60;;;6.30;;
7903;SDS011;3997;48.416;8.512;2022-07-21T12:37:14;7.22;;;6.63;;
7903;SDS011;3997;48.416;8.512;2022-07-21T12:39:40;6.47;;;6.13;;
7903;SDS011;3997;48.416;8.512;2022-07-21T12:42:29;6.60;;;6.00;;
7903;SDS011;3997;48.416;8.512;2022-07-21T12:44:56;6.50;;;6.10;;
7903;SDS011;3997;48.416;8.512;2022-07-21T12:47:23;6.45;;;6.05;;
7903;SDS011;3997;48.416;8.512;2022-07-21T12:49:53;6.40;;;5.95;;
7903;SDS011;3997;48.416;8.512;2022-07-21T12:52:20;6.32;;;6.00;;
7903;SDS011;3997;48.416;8.512;2022-07-21T12:54:46;6.10;;;5.80;;
7903;SDS011;3997;48.416;8.512;2022-07-21T12:57:13;6.68;;;6.28;;
7903;SDS011;3997;48.416;8.512;2022-07-21T12:59:41;6.65;;;6.25;;
7903;SDS011;3997;48.416;8.512;2022-07-21T13:02:07;6.38;;;6.07;;
7903;SDS011;3997;48.416;8.512;2022-07-21T13:04:34;6.20;;;5.90;;
7903;SDS011;3997;48.416;8.512;2022-07-21T13:07:01;5.93;;;5.63;;
7903;SDS011;3997;48.416;8.512;2022-07-21T13:09:27;6.22;;;5.82;;
7903;SDS011;3997;48.416;8.512;2022-07-21T13:11:54;6.25;;;5.95;;
7903;SDS011;3997;48.416;8.512;2022-07-21T13:14:20;6.38;;;5.97;;
7903;SDS011;3997;48.416;8.512;2022-07-21T13:16:48;6.32;;;6.00;;
7903;SDS011;3997;48.416;8.512;2022-07-21T13:19:15;6.03;;;5.72;;
7903;SDS011;3997;48.416;8.512;2022-07-21T13:21:41;6.22;;;5.88;;
7903;SDS011;3997;48.416;8.512;2022-07-21T13:24:08;6.18;;;5.78;;
7903;SDS011;3997;48.416;8.512;2022-07-21T13:26:34;6.30;;;6.00;;
7903;SDS011;3997;48.416;8.512;2022-07-21T13:29:01;6.28;;;5.85;;
7903;SDS011;3997;48.416;8.512;2022-07-21T13:31:30;6.45;;;6.00;;
7903;SDS011;3997;48.416;8.512;2022-07-21T13:33:59;5.97;;;5.68;;
7903;SDS011;3997;48.416;8.512;2022-07-21T13:36:25;6.30;;;5.90;;
7903;SDS011;3997;48.416;8.512;2022-07-21T13:38:52;6.38;;;5.97;;
7903;SDS011;3997;48.416;8.512;2022-07-21T13:41:18;6.05;;;5.75;;
7903;SDS011;3997;48.416;8.512;2022-07-21T13:43:45;6.45;;;6.00;;
7903;SDS011;3997;48.416;8.512;2022-07-21T13:46:11;6.10;;;5.70;;
7903;SDS011;3997;48.416;8.512;2022-07-21T13:48:38;6.22;;;5.90;;
7903;SDS011;3997;48.416;8.512;2022-07-21T13:51:06;6.40;;;6.00;;
7903;SDS011;3997;48.416;8.512;2022-07-21T13:53:33;5.30;;;5.00;;
7903;SDS011;3997;48.416;8.512;2022-07-21T13:55:59;5.97;;;5.57;;
7903;SDS011;3997;48.416;8.512;2022-07-21T13:58:26;4.90;;;4.60;;
7903;SDS011;3997;48.416;8.512;2022-07-21T14:00:52;5.75;;;5.35;;
7903;SDS011;3997;48.416;8.512;2022-07-21T14:03:20;5.88;;;5.57;;
7903;SDS011;3997;48.416;8.512;2022-07-21T14:05:46;5.72;;;5.43;;
7903;SDS011;3997;48.416;8.512;2022-07-21T14:08:14;6.47;;;6.07;;
7903;SDS011;3997;48.416;8.512;2022-07-21T14:10:41;6.50;;;6.20;;
7903;SDS011;3997;48.416;8.512;2022-07-21T14:13:08;6.60;;;6.05;;
7903;SDS011;3997;48.416;8.512;2022-07-21T14:15:34;5.53;;;5.13;;
7903;SDS011;3997;48.416;8.512;2022-07-21T14:18:01;5.05;;;4.82;;
7903;SDS011;3997;48.416;8.512;2022-07-21T14:20:27;5.60;;;5.30;;
7903;SDS011;3997;48.416;8.512;2022-07-21T14:22:54;5.60;;;5.30;;
7903;SDS011;3997;48.416;8.512;2022-07-21T14:25:22;5.80;;;5.50;;
7903;SDS011;3997;48.416;8.512;2022-07-21T14:27:50;5.20;;;4.90;;
7903;SDS011;3997;48.416;8.512;2022-07-21T14:30:17;5.57;;;5.28;;
7903;SDS011;3997;48.416;8.512;2022-07-21T14:32:44;5.63;;;5.32;;
7903;SDS011;3997;48.416;8.512;2022-07-21T14:35:10;5.25;;;4.95;;
7903;SDS011;3997;48.416;8.512;2022-07-21T14:37:40;5.43;;;5.10;;
7903;SDS011;3997;48.416;8.512;2022-07-21T14:40:07;5.50;;;5.20;;
7903;SDS011;3997;48.416;8.512;2022-07-21T14:42:35;5.28;;;4.97;;
7903;SDS011;3997;48.416;8.512;2022-07-21T14:45:02;5.65;;;5.22;;
7903;SDS011;3997;48.416;8.512;2022-07-21T14:47:29;5.35;;;5.05;;
7903;SDS011;3997;48.416;8.512;2022-07-21T14:49:56;5.63;;;5.30;;
7903;SDS011;3997;48.416;8.512;2022-07-21T14:52:22;5.47;;;5.18;;
7903;SDS011;3997;48.416;8.512;2022-07-21T14:54:49;6.20;;;5.60;;
7903;SDS011;3997;48.416;8.512;2022-07-21T14:57:15;5.85;;;5.50;;
7903;SDS011;3997;48.416;8.512;2022-07-21T14:59:43;5.65;;;5.25;;
7903;SDS011;3997;48.416;8.512;2022-07-21T15:02:10;5.50;;;5.18;;
7903;SDS011;3997;48.416;8.512;2022-07-21T15:04:36;5.70;;;5.25;;
7903;SDS011;3997;48.416;8.512;2022-07-21T15:07:03;5.18;;;4.90;;
7903;SDS011;3997;48.416;8.512;2022-07-21T15:09:30;5.35;;;4.90;;
7903;SDS011;3997;48.416;8.512;2022-07-21T15:11:56;5.70;;;5.20;;
7903;SDS011;3997;48.416;8.512;2022-07-21T15:14:23;5.25;;;5.00;;
7903;SDS011;3997;48.416;8.512;2022-07-21T15:16:50;4.90;;;4.57;;
7903;SDS011;3997;48.416;8.512;2022-07-21T15:19:17;5.40;;;5.00;;
7903;SDS011;3997;48.416;8.512;2022-07-21T15:21:43;5.40;;;5.00;;
7903;SDS011;3997;48.416;8.512;2022-07-21T15:24:10;5.25;;;4.95;;
7903;SDS011;3997;48.416;8.512;2022-07-21T15:26:36;5.07;;;4.78;;
7903;SDS011;3997;48.416;8.512;2022-07-21T15:29:03;5.50;;;5.10;;
7903;SDS011;3997;48.416;8.512;2022-07-21T15:31:30;4.80;;;4.50;;